Time;durP1;ratioP1;P1;durP2;ratioP2;P2;SDS_P1;SDS_P2;PMS_P1;PMS_P2;Temp;Humidity;BMP_temperature;BMP_pressure;BME280_temperature;BME280_humidity;BME280_pressure;Samples;Min_cycle;Max_cycle;Signal;HPM_P1;HPM_P2
2022/11/08 00:01:33;;;;;;;17.42;8.90;;;;;;;;;;1725212;80;21020;-67
2022/11/08 00:04:03;;;;;;;17.80;9.48;;;;;;;;;;1765487;80;21063;-67
2022/11/08 00:14:45;;;;;;;16.05;8.83;;;;;;;;;;1763358;80;21071;-66
2022/11/08 00:17:13;;;;;;;17.05;8.83;;;;;;;;;;1757115;80;21046;-67
2022/11/08 00:19:41;;;;;;;16.00;8.45;;;;;;;;;;1757383;80;21885;-67
2022/11/08 00:22:08;;;;;;;14.28;8.68;;;;;;;;;;1764771;80;21067;-67
2022/11/08 00:24:34;;;;;;;17.65;8.90;;;;;;;;;;1765565;80;20995;-66
2022/11/08 00:27:02;;;;;;;15.23;8.03;;;;;;;;;;1762247;80;21054;-68
2022/11/08 00:29:29;;;;;;;19.25;9.00;;;;;;;;;;1765398;80;21516;-66
2022/11/08 00:31:55;;;;;;;15.23;8.10;;;;;;;;;;1759580;80;21720;-67
2022/11/08 00:34:21;;;;;;;15.78;8.00;;;;;;;;;;1763333;80;21048;-68
2022/11/08 00:36:47;;;;;;;15.35;8.13;;;;;;;;;;1764810;80;21052;-66
2022/11/08 00:39:14;;;;;;;15.28;7.87;;;;;;;;;;1758366;80;22314;-66
2022/11/08 00:41:40;;;;;;;18.20;8.75;;;;;;;;;;1763931;80;21093;-67
2022/11/08 00:44:06;;;;;;;18.35;9.18;;;;;;;;;;1759492;80;21017;-66
2022/11/08 00:46:34;;;;;;;17.42;8.00;;;;;;;;;;1760860;80;21083;-67
2022/11/08 00:49:00;;;;;;;14.50;8.08;;;;;;;;;;1760109;80;21628;-66
2022/11/08 00:51:26;;;;;;;19.12;8.88;;;;;;;;;;1762787;80;21585;-67
2022/11/08 00:53:52;;;;;;;16.52;8.60;;;;;;;;;;1763947;80;21082;-68
2022/11/08 00:56:19;;;;;;;13.22;8.03;;;;;;;;;;1761931;80;21001;-68
2022/11/08 00:58:45;;;;;;;17.05;8.40;;;;;;;;;;1759531;80;21020;-67
2022/11/08 01:01:12;;;;;;;16.90;8.90;;;;;;;;;;1765285;80;21568;-67
2022/11/08 01:03:40;;;;;;;16.07;9.33;;;;;;;;;;1766847;80;21040;-67
2022/11/08 01:06:06;;;;;;;19.32;9.08;;;;;;;;;;1764017;80;22310;-67
2022/11/08 01:08:32;;;;;;;17.92;8.60;;;;;;;;;;1781544;80;21024;-67
2022/11/08 01:11:00;;;;;;;16.48;8.65;;;;;;;;;;1775783;80;21032;-67
2022/11/08 01:13:26;;;;;;;14.98;8.53;;;;;;;;;;1761887;80;21087;-67
2022/11/08 01:15:52;;;;;;;14.75;7.40;;;;;;;;;;1783169;80;21040;-67
2022/11/08 01:18:18;;;;;;;14.78;7.90;;;;;;;;;;1759087;81;21558;-66
2022/11/08 01:20:46;;;;;;;15.90;8.25;;;;;;;;;;1773104;80;21599;-66
2022/11/08 01:23:12;;;;;;;15.95;8.13;;;;;;;;;;1761254;80;21043;-67
2022/11/08 01:25:39;;;;;;;18.17;8.20;;;;;;;;;;1772444;80;21001;-68
2022/11/08 01:28:06;;;;;;;14.40;7.83;;;;;;;;;;1762586;81;21594;-68
2022/11/08 01:30:33;;;;;;;15.88;8.25;;;;;;;;;;1761163;81;21001;-67
2022/11/08 01:32:59;;;;;;;17.55;9.33;;;;;;;;;;1761001;81;21023;-68
2022/11/08 01:35:26;;;;;;;16.17;8.93;;;;;;;;;;1767452;80;21080;-66
2022/11/08 01:37:51;;;;;;;15.40;8.15;;;;;;;;;;1761051;81;21016;-68
2022/11/08 01:40:17;;;;;;;17.45;9.15;;;;;;;;;;1761358;80;21896;-67
2022/11/08 01:42:43;;;;;;;16.35;8.03;;;;;;;;;;1760723;81;21069;-67
2022/11/08 01:45:12;;;;;;;16.75;8.55;;;;;;;;;;1775923;80;21467;-67
2022/11/08 01:47:40;;;;;;;17.75;8.95;;;;;;;;;;1766418;80;21052;-68
2022/11/08 01:50:13;;;;;;;21.50;8.53;;;;;;;;;;1761017;80;20985;-67
2022/11/08 01:52:42;;;;;;;16.10;9.15;;;;;;;;;;1761476;80;20993;-68
2022/11/08 01:55:10;;;;;;;15.85;8.58;;;;;;;;;;1761951;80;21571;-67
2022/11/08 01:57:39;;;;;;;16.10;7.53;;;;;;;;;;1777405;80;21064;-67
2022/11/08 02:00:06;;;;;;;15.90;8.35;;;;;;;;;;1775310;80;21330;-67
2022/11/08 02:05:24;;;;;;;16.93;8.48;;;;;;;;;;1771514;78;76598;-65
2022/11/08 02:08:11;;;;;;;13.90;8.03;;;;;;;;;;1770509;80;21053;-66
2022/11/08 02:10:38;;;;;;;16.05;8.65;;;;;;;;;;1777301;80;21044;-66
2022/11/08 02:13:06;;;;;;;17.65;8.80;;;;;;;;;;1793153;80;21021;-66
2022/11/08 02:15:32;;;;;;;15.48;8.28;;;;;;;;;;1787711;80;21077;-67
2022/11/08 02:17:59;;;;;;;16.17;7.95;;;;;;;;;;1790098;80;21045;-66
2022/11/08 02:20:26;;;;;;;12.68;7.90;;;;;;;;;;1785279;80;20966;-67
2022/11/08 02:23:05;;;;;;;16.60;8.28;;;;;;;;;;1780984;80;21069;-66
2022/11/08 02:25:31;;;;;;;12.85;7.40;;;;;;;;;;1789760;80;21024;-66
2022/11/08 02:27:57;;;;;;;13.83;7.50;;;;;;;;;;1792958;80;21021;-66
2022/11/08 02:30:23;;;;;;;14.10;7.72;;;;;;;;;;1774942;80;21060;-67
2022/11/08 02:32:50;;;;;;;14.70;8.25;;;;;;;;;;1784562;80;21040;-67
2022/11/08 02:35:17;;;;;;;14.90;7.92;;;;;;;;;;1792369;80;20942;-67
2022/11/08 02:37:43;;;;;;;14.85;7.58;;;;;;;;;;1792627;80;21025;-66
2022/11/08 02:40:09;;;;;;;16.67;8.83;;;;;;;;;;1792804;80;21350;-67
2022/11/08 02:42:38;;;;;;;13.78;7.85;;;;;;;;;;1793111;80;21567;-66
2022/11/08 02:45:07;;;;;;;14.80;8.28;;;;;;;;;;1781248;80;21012;-66
2022/11/08 02:47:32;;;;;;;13.95;7.85;;;;;;;;;;1795812;80;21017;-67
2022/11/08 02:49:58;;;;;;;14.55;7.60;;;;;;;;;;1797693;80;20969;-66
2022/11/08 02:52:25;;;;;;;15.38;7.67;;;;;;;;;;1790346;80;21611;-66
2022/11/08 02:54:51;;;;;;;12.37;7.20;;;;;;;;;;1771658;80;21001;-66
2022/11/08 02:57:16;;;;;;;15.08;7.35;;;;;;;;;;1769458;81;21000;-66
2022/11/08 02:59:42;;;;;;;12.93;7.20;;;;;;;;;;1785513;80;20984;-66
2022/11/08 03:02:09;;;;;;;17.23;8.30;;;;;;;;;;1774543;80;21033;-66
2022/11/08 03:04:35;;;;;;;15.43;7.85;;;;;;;;;;1762050;80;21065;-67
2022/11/08 03:07:01;;;;;;;14.30;7.72;;;;;;;;;;1770702;80;21017;-67
2022/11/08 03:09:27;;;;;;;13.43;7.95;;;;;;;;;;1787069;80;21021;-66
2022/11/08 03:11:54;;;;;;;12.63;7.50;;;;;;;;;;1779898;80;20997;-66
2022/11/08 03:14:20;;;;;;;14.75;8.40;;;;;;;;;;1776350;80;22019;-66
2022/11/08 03:16:47;;;;;;;13.78;7.37;;;;;;;;;;1789619;80;21052;-66
2022/11/08 03:19:13;;;;;;;14.25;8.03;;;;;;;;;;1792959;80;21029;-66
2022/11/08 03:21:40;;;;;;;15.13;7.53;;;;;;;;;;1792984;80;21072;-66
2022/11/08 03:24:07;;;;;;;12.25;7.40;;;;;;;;;;1792731;80;21092;-67
2022/11/08 03:26:33;;;;;;;16.12;7.72;;;;;;;;;;1791660;80;21017;-67
2022/11/08 03:29:00;;;;;;;15.70;8.30;;;;;;;;;;1787957;80;20989;-67
2022/11/08 03:31:26;;;;;;;13.58;7.37;;;;;;;;;;1793170;80;21560;-66
2022/11/08 03:33:52;;;;;;;14.80;7.80;;;;;;;;;;1783634;80;21018;-67
2022/11/08 03:36:18;;;;;;;14.15;7.58;;;;;;;;;;1770993;80;21017;-67
2022/11/08 03:38:45;;;;;;;17.02;8.48;;;;;;;;;;1782159;80;21045;-67
2022/11/08 03:41:11;;;;;;;15.30;7.67;;;;;;;;;;1792883;80;21546;-67
2022/11/08 03:43:38;;;;;;;13.55;7.75;;;;;;;;;;1787176;80;21029;-67
2022/11/08 03:46:04;;;;;;;16.05;8.55;;;;;;;;;;1779773;80;21048;-67
2022/11/08 03:48:30;;;;;;;12.25;7.30;;;;;;;;;;1771844;80;21018;-67
2022/11/08 03:50:56;;;;;;;13.98;8.25;;;;;;;;;;1769761;80;21012;-67
2022/11/08 06:46:03;;;;;;;18.15;10.20;;;;;;;;;;1810953;77;23222;-64
2022/11/08 06:48:29;;;;;;;17.32;9.85;;;;;;;;;;1780472;79;20992;-65
2022/11/08 06:50:56;;;;;;;15.15;9.40;;;;;;;;;;1788280;79;21039;-64
2022/11/08 06:53:22;;;;;;;16.48;9.95;;;;;;;;;;1767736;79;21022;-64
2022/11/08 06:55:49;;;;;;;15.20;8.70;;;;;;;;;;1782274;79;21040;-64
2022/11/08 06:58:15;;;;;;;16.97;8.45;;;;;;;;;;1780730;79;21514;-64
2022/11/08 07:00:41;;;;;;;16.45;9.55;;;;;;;;;;1786891;80;21012;-64
2022/11/08 07:03:08;;;;;;;19.50;9.45;;;;;;;;;;1777565;79;21028;-64
2022/11/08 07:05:35;;;;;;;14.33;7.65;;;;;;;;;;1777581;79;22020;-65
2022/11/08 07:08:01;;;;;;;14.23;8.45;;;;;;;;;;1788525;79;20984;-64
2022/11/08 07:10:28;;;;;;;15.55;9.05;;;;;;;;;;1779236;79;21864;-65
2022/11/08 07:12:59;;;;;;;16.57;9.33;;;;;;;;;;1787751;79;21507;-64
2022/11/08 07:15:26;;;;;;;14.75;7.58;;;;;;;;;;1781440;79;21043;-64
2022/11/08 07:17:52;;;;;;;16.50;8.65;;;;;;;;;;1792683;79;21028;-64
2022/11/08 07:20:21;;;;;;;16.35;7.85;;;;;;;;;;1790634;79;21107;-64
2022/11/08 07:22:47;;;;;;;16.00;9.50;;;;;;;;;;1787716;79;21101;-64
2022/11/08 07:25:14;;;;;;;13.13;9.35;;;;;;;;;;1786394;79;20997;-63
2022/11/08 07:27:40;;;;;;;16.27;8.08;;;;;;;;;;1785130;79;20993;-63
2022/11/08 07:30:07;;;;;;;16.57;9.08;;;;;;;;;;1767559;79;21013;-65
2022/11/08 07:32:33;;;;;;;13.72;7.62;;;;;;;;;;1776600;79;20988;-64
2022/11/08 07:34:59;;;;;;;16.17;8.73;;;;;;;;;;1770028;79;21087;-64
2022/11/08 07:37:25;;;;;;;14.30;7.85;;;;;;;;;;1755635;80;21036;-64
2022/11/08 07:39:51;;;;;;;17.37;8.43;;;;;;;;;;1740348;80;21592;-65
2022/11/08 07:49:46;;;;;;;12.60;7.45;;;;;;;;;;1814358;77;27492;-60
2022/11/08 07:52:13;;;;;;;14.40;7.90;;;;;;;;;;1774616;80;21082;-59
2022/11/08 07:54:39;;;;;;;16.23;9.05;;;;;;;;;;1792046;79;21005;-59
2022/11/08 07:57:06;;;;;;;17.55;8.58;;;;;;;;;;1792381;79;21084;-59
2022/11/08 07:59:33;;;;;;;18.95;9.78;;;;;;;;;;1792601;80;21079;-59
2022/11/08 08:02:00;;;;;;;15.45;8.55;;;;;;;;;;1790520;80;21079;-59
2022/11/08 08:04:27;;;;;;;17.12;8.55;;;;;;;;;;1792377;80;21575;-59
2022/11/08 08:06:53;;;;;;;17.70;9.30;;;;;;;;;;1782682;79;21043;-59
2022/11/08 08:09:19;;;;;;;17.77;9.60;;;;;;;;;;1775387;79;22123;-59
2022/11/08 08:11:45;;;;;;;20.25;9.50;;;;;;;;;;1791319;80;21012;-59
2022/11/08 08:14:13;;;;;;;17.05;9.28;;;;;;;;;;1792465;80;21055;-59
2022/11/08 08:16:40;;;;;;;18.00;9.58;;;;;;;;;;1786062;79;21076;-59
2022/11/08 08:19:07;;;;;;;19.45;9.70;;;;;;;;;;1792991;79;21159;-59
2022/11/08 08:21:33;;;;;;;16.65;9.08;;;;;;;;;;1792525;80;21099;-59
2022/11/08 08:24:00;;;;;;;18.00;9.45;;;;;;;;;;1791247;80;20980;-59
2022/11/08 08:26:27;;;;;;;20.82;8.83;;;;;;;;;;1786602;79;21052;-58
2022/11/08 08:28:53;;;;;;;18.77;8.98;;;;;;;;;;1785755;80;20985;-59
2022/11/08 08:31:19;;;;;;;18.85;9.60;;;;;;;;;;1749876;80;22113;-59
2022/11/08 08:33:46;;;;;;;15.32;9.10;;;;;;;;;;1725849;82;21052;-59
2022/11/08 08:36:13;;;;;;;23.20;10.13;;;;;;;;;;1723064;82;21068;-59
2022/11/08 08:38:39;;;;;;;15.23;9.38;;;;;;;;;;1729038;83;21523;-60
2022/11/08 08:41:05;;;;;;;20.35;10.95;;;;;;;;;;1731063;83;21067;-59
2022/11/08 08:43:31;;;;;;;24.18;12.18;;;;;;;;;;1731176;83;21060;-59
2022/11/08 08:46:01;;;;;;;30.65;14.30;;;;;;;;;;1702852;83;21192;-59
2022/11/08 08:48:27;;;;;;;21.62;11.75;;;;;;;;;;1687011;83;21034;-59
2022/11/08 08:50:53;;;;;;;21.95;11.75;;;;;;;;;;1722119;83;21018;-59
2022/11/08 08:53:19;;;;;;;22.32;11.50;;;;;;;;;;1722363;82;21045;-59
2022/11/08 08:55:46;;;;;;;25.00;12.68;;;;;;;;;;1722799;83;21074;-59
2022/11/08 08:58:13;;;;;;;34.40;17.10;;;;;;;;;;1722323;83;21046;-59
2022/11/08 09:00:40;;;;;;;22.27;11.20;;;;;;;;;;1722070;83;21062;-59
2022/11/08 09:03:06;;;;;;;28.35;12.58;;;;;;;;;;1711011;82;21093;-59
2022/11/08 09:05:33;;;;;;;32.15;15.08;;;;;;;;;;1722785;82;21065;-58
2022/11/08 09:07:59;;;;;;;24.52;12.15;;;;;;;;;;1726054;82;21555;-58
2022/11/08 09:10:25;;;;;;;31.90;17.02;;;;;;;;;;1722145;83;21075;-58
2022/11/08 09:12:51;;;;;;;24.90;13.45;;;;;;;;;;1717035;82;21064;-58
2022/11/08 09:15:18;;;;;;;28.62;13.88;;;;;;;;;;1719885;82;21087;-58
2022/11/08 09:17:44;;;;;;;42.45;20.70;;;;;;;;;;1722492;83;21495;-58
2022/11/08 09:20:13;;;;;;;46.55;20.95;;;;;;;;;;1722227;83;21111;-58
2022/11/08 09:22:39;;;;;;;39.27;15.90;;;;;;;;;;1720874;83;21013;-61
2022/11/08 09:25:09;;;;;;;32.05;13.65;;;;;;;;;;1712207;82;21560;-60
2022/11/08 09:27:35;;;;;;;28.38;12.50;;;;;;;;;;1713892;82;22072;-60
2022/11/08 09:30:01;;;;;;;27.22;13.83;;;;;;;;;;1717381;83;21043;-61
2022/11/08 09:32:28;;;;;;;26.55;13.25;;;;;;;;;;1711661;82;21080;-61
2022/11/08 09:34:55;;;;;;;29.70;14.05;;;;;;;;;;1674970;83;22291;-61
2022/11/08 09:37:22;;;;;;;36.30;16.62;;;;;;;;;;1672775;85;21104;-61
2022/11/08 09:39:48;;;;;;;36.83;16.52;;;;;;;;;;1673369;85;22410;-61
2022/11/08 09:42:28;;;;;;;43.30;19.77;;;;;;;;;;1676553;83;21554;-61
2022/11/08 09:45:14;;;;;;;38.92;17.52;;;;;;;;;;1709026;82;21096;-60
2022/11/08 09:47:41;;;;;;;28.38;14.45;;;;;;;;;;1711289;82;21055;-61
2022/11/08 09:50:15;;;;;;;27.17;11.65;;;;;;;;;;1727439;80;22293;-61
2022/11/08 09:52:42;;;;;;;29.60;14.13;;;;;;;;;;1732903;81;21056;-62
2022/11/08 09:55:26;;;;;;;32.58;14.85;;;;;;;;;;1699973;83;21057;-62
2022/11/08 09:58:12;;;;;;;29.35;12.88;;;;;;;;;;1732352;80;21547;-62
2022/11/08 10:00:38;;;;;;;28.83;13.25;;;;;;;;;;1733667;81;21072;-62
2022/11/08 10:03:04;;;;;;;26.70;12.40;;;;;;;;;;1735076;81;21056;-62
2022/11/08 10:05:33;;;;;;;27.20;13.32;;;;;;;;;;1744081;81;21052;-62
2022/11/08 10:08:01;;;;;;;22.13;11.78;;;;;;;;;;1747591;82;21081;-62
2022/11/08 10:10:32;;;;;;;30.02;13.93;;;;;;;;;;1745952;81;21099;-63
2022/11/08 10:13:03;;;;;;;25.72;12.18;;;;;;;;;;1740413;81;21050;-62
2022/11/08 10:15:38;;;;;;;25.55;12.35;;;;;;;;;;1733941;81;21052;-62
2022/11/08 10:18:16;;;;;;;29.18;14.13;;;;;;;;;;1748813;81;21119;-63
2022/11/08 10:20:44;;;;;;;31.85;15.38;;;;;;;;;;1737782;81;21040;-60
2022/11/08 10:23:28;;;;;;;30.97;14.60;;;;;;;;;;1714599;82;21040;-62
2022/11/08 10:26:06;;;;;;;26.55;13.20;;;;;;;;;;1709846;84;21048;-62
2022/11/08 10:28:35;;;;;;;31.60;13.88;;;;;;;;;;1709916;83;21013;-61
2022/11/08 10:31:01;;;;;;;28.52;14.90;;;;;;;;;;1707345;83;21048;-60
2022/11/08 10:33:30;;;;;;;30.15;15.13;;;;;;;;;;1656662;85;21089;-62
2022/11/08 10:36:13;;;;;;;38.05;19.40;;;;;;;;;;1742004;82;21596;-62
2022/11/08 10:38:47;;;;;;;31.82;13.53;;;;;;;;;;1736707;81;21033;-61
2022/11/08 10:41:27;;;;;;;26.60;12.33;;;;;;;;;;1701091;84;21013;-62
2022/11/08 10:43:56;;;;;;;36.75;17.40;;;;;;;;;;1739789;82;21116;-63
2022/11/08 10:46:27;;;;;;;29.87;13.53;;;;;;;;;;1734937;82;21091;-63
2022/11/08 10:48:55;;;;;;;22.77;13.28;;;;;;;;;;1735756;81;21580;-63
2022/11/08 10:51:22;;;;;;;25.32;12.90;;;;;;;;;;1739247;82;21060;-62
2022/11/08 10:53:49;;;;;;;29.98;13.88;;;;;;;;;;1739334;82;21049;-61
2022/11/08 10:56:15;;;;;;;27.27;13.83;;;;;;;;;;1698329;84;20990;-63
2022/11/08 10:58:41;;;;;;;27.55;13.75;;;;;;;;;;1736726;81;21061;-63
2022/11/08 11:01:18;;;;;;;28.10;13.60;;;;;;;;;;1742276;82;21037;-61
2022/11/08 11:03:44;;;;;;;28.35;14.10;;;;;;;;;;1690417;84;21065;-62
2022/11/08 11:06:21;;;;;;;28.07;14.30;;;;;;;;;;1736940;82;21065;-62
2022/11/08 11:08:48;;;;;;;26.90;13.78;;;;;;;;;;1742803;81;20954;-61
2022/11/08 11:11:19;;;;;;;29.18;14.73;;;;;;;;;;1737490;82;20974;-61
2022/11/08 11:13:45;;;;;;;28.05;14.35;;;;;;;;;;1735729;81;21017;-61
2022/11/08 11:16:12;;;;;;;27.50;14.00;;;;;;;;;;1718378;82;21119;-61
2022/11/08 11:18:46;;;;;;;23.90;13.32;;;;;;;;;;1739236;81;21001;-61
2022/11/08 11:21:16;;;;;;;26.50;14.45;;;;;;;;;;1739207;80;21509;-61
2022/11/08 11:23:44;;;;;;;31.15;14.25;;;;;;;;;;1742355;81;21048;-61
2022/11/08 11:26:15;;;;;;;28.92;14.23;;;;;;;;;;1738595;81;21036;-61
2022/11/08 11:28:46;;;;;;;26.55;13.75;;;;;;;;;;1732295;81;21059;-60
2022/11/08 11:31:14;;;;;;;27.95;14.40;;;;;;;;;;1726729;81;21080;-61
2022/11/08 11:33:45;;;;;;;24.98;13.00;;;;;;;;;;1728163;81;21496;-62
2022/11/08 11:36:13;;;;;;;23.92;12.55;;;;;;;;;;1732723;81;21029;-62
2022/11/08 11:38:47;;;;;;;26.55;13.40;;;;;;;;;;1730981;81;21537;-62
2022/11/08 11:41:14;;;;;;;23.83;11.75;;;;;;;;;;1728556;81;21037;-62
2022/11/08 11:43:49;;;;;;;21.87;11.63;;;;;;;;;;1696346;83;21104;-61
2022/11/08 11:46:35;;;;;;;24.70;11.65;;;;;;;;;;1731449;81;21025;-62
2022/11/08 11:49:03;;;;;;;20.65;11.15;;;;;;;;;;1692488;83;21687;-62
2022/11/08 11:51:29;;;;;;;24.32;12.15;;;;;;;;;;1680873;84;21089;-62
2022/11/08 11:53:55;;;;;;;21.60;11.88;;;;;;;;;;1674365;84;21781;-62
2022/11/08 11:56:40;;;;;;;24.65;12.05;;;;;;;;;;1648226;85;22246;-62
2022/11/08 11:59:26;;;;;;;22.15;12.25;;;;;;;;;;1648399;85;21111;-62
2022/11/08 12:02:11;;;;;;;21.73;11.55;;;;;;;;;;1712527;82;21079;-63
2022/11/08 12:04:40;;;;;;;21.45;12.05;;;;;;;;;;1676552;84;22300;-61
2022/11/08 12:07:25;;;;;;;23.55;11.20;;;;;;;;;;1672210;84;21163;-63
2022/11/08 12:10:10;;;;;;;23.60;12.25;;;;;;;;;;1677531;84;22242;-62
2022/11/08 12:12:50;;;;;;;21.48;12.03;;;;;;;;;;1652955;85;21125;-61
2022/11/08 12:15:22;;;;;;;22.82;12.78;;;;;;;;;;1671840;84;21112;-63
2022/11/08 12:18:07;;;;;;;23.73;12.13;;;;;;;;;;1645030;86;21156;-61
2022/11/08 12:20:36;;;;;;;20.15;11.80;;;;;;;;;;1635855;86;21065;-61
2022/11/08 12:23:20;;;;;;;21.97;12.63;;;;;;;;;;1634907;87;21116;-63
2022/11/08 12:25:48;;;;;;;26.30;14.33;;;;;;;;;;1648871;85;21675;-62
2022/11/08 12:28:19;;;;;;;24.92;13.13;;;;;;;;;;1641713;86;21603;-63
2022/11/08 12:30:47;;;;;;;26.68;13.03;;;;;;;;;;1708977;82;21003;-62
2022/11/08 12:33:23;;;;;;;23.32;12.15;;;;;;;;;;1692487;82;21077;-62
2022/11/08 12:35:57;;;;;;;23.52;12.45;;;;;;;;;;1709212;82;21034;-61
2022/11/08 12:38:25;;;;;;;25.35;12.88;;;;;;;;;;1710542;82;21553;-61
2022/11/08 12:40:59;;;;;;;25.02;12.33;;;;;;;;;;1720445;82;21061;-61
2022/11/08 12:43:34;;;;;;;23.67;11.45;;;;;;;;;;1705541;82;21064;-62
2022/11/08 12:46:11;;;;;;;21.27;11.38;;;;;;;;;;1715369;82;21009;-61
2022/11/08 12:48:39;;;;;;;21.25;12.88;;;;;;;;;;1710965;82;21116;-62
2022/11/08 12:51:24;;;;;;;27.60;12.63;;;;;;;;;;1734709;81;21044;-62
2022/11/08 12:54:09;;;;;;;24.27;11.75;;;;;;;;;;1741828;81;21088;-62
2022/11/08 12:56:40;;;;;;;28.30;12.98;;;;;;;;;;1736252;82;21568;-64
2022/11/08 12:59:11;;;;;;;24.57;12.68;;;;;;;;;;1742945;82;21306;-63
2022/11/08 13:01:37;;;;;;;26.82;12.15;;;;;;;;;;1734766;80;21528;-62
2022/11/08 13:04:10;;;;;;;22.20;12.03;;;;;;;;;;1740128;80;22007;-61
2022/11/08 13:06:45;;;;;;;26.33;12.23;;;;;;;;;;1701299;84;21064;-62
2022/11/08 13:09:15;;;;;;;25.85;12.85;;;;;;;;;;1709429;83;21027;-61
2022/11/08 13:11:49;;;;;;;29.23;14.47;;;;;;;;;;1716970;83;21099;-61
2022/11/08 13:14:15;;;;;;;;;;;;;;;;;;1717460;82;22406;-61
2022/11/08 13:16:45;;;;;;;29.72;13.18;;;;;;;;;;1707675;83;20097;-61
2022/11/08 13:19:28;;;;;;;27.82;13.78;;;;;;;;;;1708760;83;21037;-61
2022/11/08 13:21:55;;;;;;;27.82;12.85;;;;;;;;;;1713339;82;21672;-62
2022/11/08 13:24:23;;;;;;;28.52;11.93;;;;;;;;;;1739858;81;20997;-61
2022/11/08 13:26:49;;;;;;;23.87;12.15;;;;;;;;;;1738799;81;21520;-62
2022/11/08 13:29:20;;;;;;;27.93;12.95;;;;;;;;;;1736440;82;21041;-61
2022/11/08 13:31:50;;;;;;;25.75;13.72;;;;;;;;;;1735821;82;21100;-62
2022/11/08 13:37:10;;;;;;;27.85;13.38;;;;;;;;;;1703737;83;21052;-63
2022/11/08 13:39:38;;;;;;;28.65;14.23;;;;;;;;;;1697275;83;21063;-62
2022/11/08 13:42:06;;;;;;;25.25;14.50;;;;;;;;;;1692809;83;21116;-63
2022/11/08 13:44:52;;;;;;;28.65;14.20;;;;;;;;;;1689529;83;21055;-62
2022/11/08 13:47:35;;;;;;;37.65;15.88;;;;;;;;;;1685951;84;21047;-63
2022/11/08 13:50:21;;;;;;;29.65;13.40;;;;;;;;;;1675896;84;21023;-62
2022/11/08 13:52:49;;;;;;;23.52;12.93;;;;;;;;;;1680964;84;21037;-62
2022/11/08 13:55:34;;;;;;;29.67;13.50;;;;;;;;;;1692918;84;21191;-61
2022/11/08 13:58:01;;;;;;;23.35;12.65;;;;;;;;;;1683947;84;21086;-61
2022/11/08 14:00:33;;;;;;;27.22;13.10;;;;;;;;;;1687032;83;21035;-60
2022/11/08 14:02:59;;;;;;;28.42;14.18;;;;;;;;;;1684743;83;21153;-61
2022/11/08 14:05:26;;;;;;;29.35;14.38;;;;;;;;;;1686991;84;21070;-61
2022/11/08 14:07:54;;;;;;;31.55;14.30;;;;;;;;;;1687972;83;21080;-61
2022/11/08 14:10:25;;;;;;;39.10;19.42;;;;;;;;;;1678396;84;21036;-62
2022/11/08 14:12:56;;;;;;;30.82;16.02;;;;;;;;;;1671139;85;21068;-61
2022/11/08 14:15:24;;;;;;;29.18;15.90;;;;;;;;;;1688249;83;21075;-62
2022/11/08 14:18:10;;;;;;;29.63;15.13;;;;;;;;;;1678681;85;21642;-61
2022/11/08 14:20:40;;;;;;;32.58;14.98;;;;;;;;;;1609260;87;21074;-61
2022/11/08 14:23:22;;;;;;;24.77;14.68;;;;;;;;;;1607127;87;21121;-61
2022/11/08 14:26:01;;;;;;;24.12;13.32;;;;;;;;;;1644145;83;21052;-61
2022/11/08 14:28:28;;;;;;;25.43;14.10;;;;;;;;;;1694092;83;21021;-61
2022/11/08 14:30:55;;;;;;;28.42;12.85;;;;;;;;;;1686472;83;21090;-62
2022/11/08 14:33:22;;;;;;;25.97;14.07;;;;;;;;;;1690553;83;21059;-61
2022/11/08 14:35:58;;;;;;;25.32;13.60;;;;;;;;;;1684583;83;21026;-62
2022/11/08 14:38:25;;;;;;;28.60;14.60;;;;;;;;;;1679244;83;21509;-62
2022/11/08 14:40:55;;;;;;;28.85;15.00;;;;;;;;;;1679351;83;21083;-61
2022/11/08 14:43:21;;;;;;;29.40;15.18;;;;;;;;;;1677235;83;21073;-63
2022/11/08 14:45:47;;;;;;;30.52;14.55;;;;;;;;;;1673628;83;21012;-62
2022/11/08 14:48:15;;;;;;;29.63;15.08;;;;;;;;;;1673319;83;21037;-62
2022/11/08 14:50:41;;;;;;;29.37;14.23;;;;;;;;;;1674630;83;22338;-62
2022/11/08 14:53:22;;;;;;;28.20;15.23;;;;;;;;;;1671785;83;21124;-61
2022/11/08 14:55:51;;;;;;;29.25;13.72;;;;;;;;;;1662566;85;21121;-61
2022/11/08 14:58:18;;;;;;;25.25;13.80;;;;;;;;;;1666990;85;21602;-61
2022/11/08 15:00:44;;;;;;;25.80;12.85;;;;;;;;;;1673464;85;21073;-60
2022/11/08 15:03:12;;;;;;;30.00;14.53;;;;;;;;;;1677360;84;21544;-61
2022/11/08 15:05:53;;;;;;;27.45;14.07;;;;;;;;;;1672248;85;21326;-60
2022/11/08 15:08:27;;;;;;;28.73;14.53;;;;;;;;;;1668250;85;21297;-60
2022/11/08 15:10:55;;;;;;;26.93;14.85;;;;;;;;;;1672622;85;21047;-61
2022/11/08 15:13:22;;;;;;;27.87;13.62;;;;;;;;;;1666527;85;21495;-61
2022/11/08 15:15:50;;;;;;;25.95;13.68;;;;;;;;;;1642147;85;21053;-62
2022/11/08 15:18:21;;;;;;;32.73;18.30;;;;;;;;;;1672858;85;21051;-61
2022/11/08 15:20:57;;;;;;;35.75;15.93;;;;;;;;;;1676985;83;21006;-61
2022/11/08 15:23:37;;;;;;;25.82;15.08;;;;;;;;;;1664881;85;21005;-62
2022/11/08 15:26:03;;;;;;;32.10;15.53;;;;;;;;;;1637273;85;21517;-62
2022/11/08 15:28:30;;;;;;;30.92;15.35;;;;;;;;;;1641091;85;21094;-61
2022/11/08 15:30:58;;;;;;;30.57;15.23;;;;;;;;;;1668994;85;21071;-61
2022/11/08 15:33:25;;;;;;;29.87;15.68;;;;;;;;;;1671326;84;21059;-61
2022/11/08 15:35:51;;;;;;;32.98;17.92;;;;;;;;;;1673257;85;21056;-61
2022/11/08 15:38:32;;;;;;;40.10;20.43;;;;;;;;;;1675546;85;21077;-61
2022/11/08 15:40:59;;;;;;;40.20;19.37;;;;;;;;;;1672757;85;21095;-61
2022/11/08 15:43:30;;;;;;;40.43;20.62;;;;;;;;;;1650637;85;21078;-61
2022/11/08 15:45:57;;;;;;;47.05;19.77;;;;;;;;;;1643483;85;21578;-61
2022/11/08 15:48:26;;;;;;;37.70;19.00;;;;;;;;;;1649079;85;20998;-61
2022/11/08 15:50:52;;;;;;;38.63;19.82;;;;;;;;;;1676131;85;21058;-61
2022/11/08 15:53:18;;;;;;;37.42;19.52;;;;;;;;;;1677938;84;21036;-61
2022/11/08 15:55:47;;;;;;;34.70;17.52;;;;;;;;;;1671830;85;22086;-62
2022/11/08 15:58:14;;;;;;;35.40;18.32;;;;;;;;;;1672999;85;21073;-61
2022/11/08 16:00:46;;;;;;;44.93;22.67;;;;;;;;;;1676411;85;21056;-62
2022/11/08 16:03:12;;;;;;;74.03;36.33;;;;;;;;;;1673880;85;21483;-61
2022/11/08 16:05:39;;;;;;;52.73;28.52;;;;;;;;;;1676631;84;21069;-61
2022/11/08 16:08:07;;;;;;;36.35;20.57;;;;;;;;;;1680740;84;21035;-61
2022/11/08 16:10:35;;;;;;;41.40;21.25;;;;;;;;;;1675533;85;21089;-61
2022/11/08 16:13:02;;;;;;;48.95;22.40;;;;;;;;;;1673341;85;21032;-62
2022/11/08 16:15:31;;;;;;;65.57;26.57;;;;;;;;;;1667480;85;21050;-60
2022/11/08 16:17:59;;;;;;;54.38;23.00;;;;;;;;;;1673947;85;21039;-61
2022/11/08 16:20:27;;;;;;;56.95;24.67;;;;;;;;;;1672223;83;21656;-60
2022/11/08 16:22:54;;;;;;;54.88;22.20;;;;;;;;;;1677997;85;21065;-61
2022/11/08 16:25:21;;;;;;;51.42;23.25;;;;;;;;;;1668189;85;21016;-61
2022/11/08 16:27:50;;;;;;;47.73;23.70;;;;;;;;;;1658044;85;21052;-60
2022/11/08 16:30:17;;;;;;;53.02;26.07;;;;;;;;;;1669710;83;21015;-61
2022/11/08 16:32:43;;;;;;;59.00;27.15;;;;;;;;;;1672905;85;21046;-61
2022/11/08 16:35:09;;;;;;;49.35;24.75;;;;;;;;;;1673881;83;21056;-62
2022/11/08 16:37:37;;;;;;;53.42;25.05;;;;;;;;;;1698262;82;21787;-62
2022/11/08 16:40:05;;;;;;;51.75;23.05;;;;;;;;;;1700208;82;21609;-61
2022/11/08 16:42:32;;;;;;;42.45;23.40;;;;;;;;;;1696069;82;21070;-61
2022/11/08 16:45:00;;;;;;;39.30;21.55;;;;;;;;;;1699880;82;22255;-61
2022/11/08 16:47:28;;;;;;;45.48;23.47;;;;;;;;;;1697976;82;21612;-62
2022/11/08 16:49:55;;;;;;;39.83;22.55;;;;;;;;;;1701190;82;21043;-61
2022/11/08 16:52:22;;;;;;;38.50;21.48;;;;;;;;;;1702610;82;21089;-62
2022/11/08 16:54:48;;;;;;;39.58;20.62;;;;;;;;;;1699412;82;21051;-61
2022/11/08 16:57:14;;;;;;;37.83;19.55;;;;;;;;;;1698638;82;22326;-61
2022/11/08 16:59:40;;;;;;;34.15;18.32;;;;;;;;;;1705257;82;21070;-61
2022/11/08 17:02:12;;;;;;;34.10;19.57;;;;;;;;;;1700693;82;21121;-61
2022/11/08 17:04:38;;;;;;;33.88;19.23;;;;;;;;;;1706203;82;21118;-60
2022/11/08 17:07:05;;;;;;;35.35;19.30;;;;;;;;;;1702288;82;21054;-61
2022/11/08 17:09:31;;;;;;;34.88;19.48;;;;;;;;;;1701344;82;21513;-62
2022/11/08 17:11:57;;;;;;;39.53;22.10;;;;;;;;;;1702749;82;21034;-62
2022/11/08 17:14:23;;;;;;;42.70;21.07;;;;;;;;;;1675524;84;22193;-61
2022/11/08 17:16:52;;;;;;;40.08;21.68;;;;;;;;;;1684469;83;21031;-61
2022/11/08 17:19:17;;;;;;;41.30;22.05;;;;;;;;;;1691461;83;21055;-61
2022/11/08 17:21:43;;;;;;;43.35;22.32;;;;;;;;;;1673642;83;21083;-61
2022/11/08 17:24:10;;;;;;;41.25;22.85;;;;;;;;;;1695238;83;20996;-61
2022/11/08 17:26:36;;;;;;;39.27;21.20;;;;;;;;;;1674177;85;21062;-62
2022/11/08 17:29:05;;;;;;;41.42;24.00;;;;;;;;;;1687743;83;20993;-62
2022/11/08 17:31:32;;;;;;;42.62;24.30;;;;;;;;;;1680935;83;21586;-61
2022/11/08 17:33:58;;;;;;;43.80;25.20;;;;;;;;;;1673378;83;21054;-61
2022/11/08 17:36:25;;;;;;;46.28;25.45;;;;;;;;;;1686219;83;21083;-61
2022/11/08 17:38:51;;;;;;;49.45;26.90;;;;;;;;;;1696889;83;21107;-60
2022/11/08 17:41:17;;;;;;;57.17;28.32;;;;;;;;;;1703799;83;22218;-61
2022/11/08 17:43:44;;;;;;;58.45;28.75;;;;;;;;;;1711324;82;21087;-61
2022/11/08 17:46:10;;;;;;;58.80;31.35;;;;;;;;;;1703460;83;21115;-65